Terminal Aerodrome Forecast
Issued by NWS

Home | Current Version | Previous Version | Text Only | Print | Product List | Glossary Off
Versions: 1 2 3 4 5 6 7 8 9 10 11 12 13 14 15 16 17 18 19 20 21 22 23 24 25 26 27 28 29

007
FTUS43 KLOT 190916 AAB
TAFDPA
TAF AMD
KDPA 190916Z 1909/2006 20004KT 2SM BR OVC003
      TEMPO 1909/1912 3/4SM BR
     FM191700 16008KT 6SM BR SCT006 BKN100
     FM192000 11008KT P6SM OVC035
     FM200000 09007KT 3SM -RA SCT015 OVC035
     FM200300 09006KT 2SM -RA BKN006 OVC012=

USA.gov is the U.S. government's official web portal to all federal, state and local government web resources and services.